This is the latest recevied weather packets stored in our database for station/object W1HVD. If no packets are shown the sender has not sent any weather packets the latest 10 day(s).
| Time | Temp. | Humidity | Pressure | Rain* | Wind** | Luminosity | Snow |
|---|---|---|---|---|---|---|---|
| 1777667620 | 17.78° C | 32% | 1008.4 hPa | 0 mm | - | 360 W/m² | - |
| 1777667317 | 17.78° C | 32% | 1008.2 hPa | 0 mm | - | 373 W/m² | - |
| 1777667014 | 17.78° C | 32% | 1008.6 hPa | 0 mm | - | 359 W/m² | - |
| 1777666711 | 17.78° C | 33% | 1008.6 hPa | 0 mm | - | 405 W/m² | - |
| 1777666408 | 17.78° C | 32% | 1008.4 hPa | 0 mm | - | 417 W/m² | - |
| 1777666104 | 18.33° C | 36% | 1008.4 hPa | 0 mm | - | 435 W/m² | - |
| 1777665802 | 18.33° C | 34% | 1008.7 hPa | 0 mm | - | 453 W/m² | - |
| 1777665500 | 18.33° C | 33% | 1008.7 hPa | 0 mm | - | 464 W/m² | - |
| 1777665195 | 18.33° C | 35% | 1008.2 hPa | 0 mm | - | 483 W/m² | - |
| 1777664891 | 18.33° C | 35% | 1008.6 hPa | 0 mm | - | 500 W/m² | - |
| 1777664587 | 18.33° C | 33% | 1008.7 hPa | 0 mm | - | 517 W/m² | - |
| 1777664284 | 17.78° C | 34% | 1008.9 hPa | 0 mm | - | 529 W/m² | - |
| 1777663983 | 17.22° C | 37% | 1008.4 hPa | 0 mm | - | 521 W/m² | - |
| 1777663679 | 16.67° C | 34% | 1008.8 hPa | 0 mm | - | 566 W/m² | - |
| 1777663376 | 17.78° C | 34% | 1008.8 hPa | 0 mm | - | 104 W/m² | - |
| 1777663073 | 18.33° C | 35% | 1008.6 hPa | 0 mm | - | 588 W/m² | - |
| 1777662770 | 17.78° C | 34% | 1008.8 hPa | 0 mm | - | 605 W/m² | - |
| 1777662467 | 17.22° C | 34% | 1008.8 hPa | 0 mm | - | 527 W/m² | - |
| 1777662163 | 16.67° C | 37% | 1008.9 hPa | 0 mm | - | 621 W/m² | - |
| 1777661859 | 16.67° C | 38% | 1009 hPa | 0 mm | - | 119 W/m² | - |
| 1777661555 | 17.78° C | 36% | 1008.8 hPa | 0 mm | - | 547 W/m² | - |
| 1777661251 | 17.78° C | 38% | 1008.8 hPa | 0 mm | - | 634 W/m² | - |
| 1777660946 | 17.78° C | 35% | 1009.2 hPa | 0 mm | - | 711 W/m² | - |
| 1777660642 | 17.78° C | 37% | 1008.9 hPa | 0 mm | - | 661 W/m² | - |
| 1777660340 | 17.22° C | 36% | 1009 hPa | 0 mm | - | 667 W/m² | - |
* Rain latest hour (hover to see other rain measurements)
** Current wind speed in m/s (hover to see current wind gust speed)